Latest Coastal Weather Observations for Portland Harbour

IDV60701

Issued at 10:51 pm EDT Tuesday 28 March 2017 (issued every 10 minutes, with the page automatically refreshed every 10 minutes)

About coastal observations | Map of coastal stations | Coastal observations for VIC | Marine services | Other Formats
Station Details ID: 090192 Name: PORTLAND NTC AWS Lat: -38.34 Lon: 141.61 Height: 0.0 m
Data from the previous 72 hours. | See also: Recent months for locations in Victoria
Date/Time
EDT
Temp
°C
Wind Pressure Rain since
9am
mm
Weather Cloud Vis
km
Sea
Height
m
Swell
Dir  Spd
kts
Gust
kts
hPa Trend Height
m
Period
s
Dir
28/10:30pm 16.9 NNW 8 12 1010.9 - - - - - - - - -
28/10:00pm 16.7 WNW 6 8 1011.0 - - - - - - - - -
28/09:30pm 16.2 NW 4 7 1011.0 - - - - - - - - -
28/09:00pm 16.6 WNW 6 8 1010.9 - - - - - - - - -
28/08:30pm 17.1 NW 7 10 1010.8 - - - - - - - - -
28/08:00pm 17.3 WNW 8 11 1010.9 - - - - - - - - -
28/07:30pm 17.7 W 10 14 1010.9 - - - - - - - - -
28/07:00pm 18.1 W 11 17 1011.0 - - - - - - - - -
28/06:30pm 18.2 W 13 19 1010.7 - - - - - - - - -
28/06:00pm 18.7 W 13 21 1010.6 - - - - - - - - -
28/05:30pm 19.5 W 16 24 1010.6 - - - - - - - - -
28/05:00pm 19.5 W 16 23 1010.7 - - - - - - - - -
28/04:30pm 19.4 W 15 22 1010.9 - - - - - - - - -
28/04:00pm 18.9 W 18 25 1011.0 - - - - - - - - -
28/03:30pm 19.9 W 15 24 1011.1 - - - - - - - - -
28/03:00pm 19.6 W 18 24 1011.3 - - - - - - - - -
28/02:30pm 19.4 W 18 26 1011.6 - - - - - - - - -
28/02:16pm 19.3 WNW 18 28 1011.9 - - - - - - - - -
28/02:00pm 18.8 W 18 25 1011.9 - - - - - - - - -
28/01:30pm 19.0 WNW 18 26 1012.1 - - - - - - - - -
28/01:00pm 18.9 W 18 28 1012.6 - - - - - - - - -
28/12:56pm 19.2 WNW 17 28 1012.6 - - - - - - - - -
28/12:30pm 18.3 WNW 16 23 1012.8 - - - - - - - - -
28/12:00pm 18.0 WNW 13 21 1013.1 - - - - - - - - -
28/11:30am 17.6 WNW 14 19 1013.1 - - - - - - - - -
28/11:00am 17.6 W 13 20 1013.4 - - - - - - - - -
28/10:30am 16.8 NW 11 15 1013.4 - - - - - - - - -
28/10:00am 15.8 NNW 9 12 1013.5 - - - - - - - - -
28/09:30am 14.7 NNW 8 10 1013.4 - - - - - - - - -
28/09:00am 13.9 NNW 9 12 1013.3 - - - - - - - - -
28/08:30am 13.8 NNW 10 12 1013.1 - - - - - - - - -
28/08:00am 13.6 NNW 11 12 1012.9 - - - - - - - - -
28/07:30am 14.0 NNW 10 11 1012.7 - - - - - - - - -
28/07:00am 14.1 NNW 9 11 1012.6 - - - - - - - - -
28/06:30am 13.8 NNW 8 10 1012.4 - - - - - - - - -
28/06:00am 13.5 NNW 7 9 1012.4 - - - - - - - - -
28/05:30am 13.7 NNW 8 11 1012.3 - - - - - - - - -
28/05:00am 14.1 NNW 7 10 1012.2 - - - - - - - - -
28/04:30am 13.8 NNW 5 7 1012.2 - - - - - - - - -
28/04:00am 13.9 NNW 6 9 1012.3 - - - - - - - - -
28/03:30am 13.9 NNW 8 10 1012.4 - - - - - - - - -
28/03:00am 13.9 NW 5 9 1012.5 - - - - - - - - -
28/02:30am 13.7 NNW 7 9 1012.5 - - - - - - - - -
28/02:00am 14.0 NNW 7 10 1012.7 - - - - - - - - -
28/01:30am 14.0 NNW 8 12 1012.9 - - - - - - - - -
28/01:00am 14.2 NNW 8 11 1012.7 - - - - - - - - -
28/12:30am 14.4 NNW 9 11 1012.7 - - - - - - - - -
28/12:00am 14.7 NNW 9 11 1012.6 - - - - - - - - -
 
Date/Time
EDT
Temp
°C
Wind Pressure Rain since
9am
mm
Weather Cloud Vis
km
Sea
Height
m
Swell
Dir  Spd
kts
Gust
kts
hPa Trend Height
m
Period
s
Dir
27/11:30pm 14.8 NNW 6 9 1012.8 - - - - - - - - -
27/11:00pm 15.2 NNW 6 11 1012.8 - - - - - - - - -
27/10:30pm 15.7 NW 6 11 1012.8 - - - - - - - - -
27/10:00pm 16.1 NW 6 9 1012.4 - - - - - - - - -
27/09:30pm 16.3 WNW 8 12 1012.6 - - - - - - - - -
27/09:00pm 16.5 W 8 13 1012.2 - - - - - - - - -
27/08:30pm 16.6 W 9 15 1011.8 - - - - - - - - -
27/08:00pm 16.9 W 12 17 1011.4 - - - - - - - - -
27/07:30pm 17.3 WNW 13 18 1011.0 - - - - - - - - -
27/07:00pm 17.7 W 14 23 1010.6 - - - - - - - - -
27/06:30pm 18.2 WNW 17 27 1010.2 - - - - - - - - -
27/06:03pm 18.6 W 18 28 1009.9 - - - - - - - - -
27/06:00pm 18.6 W 20 28 1009.9 - - - - - - - - -
27/05:30pm 18.5 WNW 22 32 1009.9 - - - - - - - - -
27/05:00pm 19.2 W 21 33 1009.8 - - - - - - - - -
27/04:30pm 19.3 WNW 23 33 1009.6 - - - - - - - - -
27/04:00pm 19.2 WNW 21 32 1009.4 - - - - - - - - -
27/03:31pm 19.4 W 23 33 1009.4 - - - - - - - - -
27/03:30pm 19.2 W 24 33 1009.2 - - - - - - - - -
27/03:01pm 19.4 WNW 23 35 1008.9 - - - - - - - - -
27/03:00pm 19.4 W 23 32 1008.8 - - - - - - - - -
27/02:30pm 19.1 WNW 23 35 1009.1 - - - - - - - - -
27/02:09pm 18.6 WNW 18 30 1009.2 - - - - - - - - -
27/02:00pm 18.3 WNW 17 25 1009.2 - - - - - - - - -
27/01:30pm 17.1 NW 15 23 1009.4 - - - - - - - - -
27/01:00pm 16.6 WNW 11 17 1009.1 - - - - - - - - -
27/12:30pm 15.7 NW 11 16 1008.6 - - - - - - - - -
27/12:00pm 15.7 WNW 13 18 1009.2 - - - - - - - - -
27/11:30am 16.4 W 15 24 1008.6 - - - - - - - - -
27/11:00am 17.8 WSW 18 30 1008.4 - - - - - - - - -
27/10:30am 18.6 WSW 19 33 1007.2 - - - - - - - - -
27/10:00am 18.9 W 18 30 1005.4 - - - - - - - - -
27/09:30am 19.5 W 21 31 1004.3 - - - - - - - - -
27/09:18am 19.8 W 18 29 1004.1 - - - - - - - - -
27/09:00am 19.8 W 18 27 1003.6 - - - - - - - - -
27/08:30am 20.2 W 19 31 1002.8 - - - - - - - - -
27/08:00am 21.8 W 23 33 1001.8 - - - - - - - - -
27/07:54am 23.0 WNW 19 32 1001.3 - - - - - - - - -
27/07:33am 28.2 NW 16 26 1000.6 - - - - - - - - -
27/07:30am 28.6 NW 18 26 1000.4 - - - - - - - - -
27/07:12am 28.2 NNW 18 29 999.9 - - - - - - - - -
27/07:00am 28.4 NNW 21 28 999.5 - - - - - - - - -
27/06:53am 27.8 NNW 22 32 999.3 - - - - - - - - -
27/06:30am 27.5 N 24 30 998.9 - - - - - - - - -
27/06:00am 26.4 N 24 31 998.7 - - - - - - - - -
27/05:30am 26.9 N 25 32 999.3 - - - - - - - - -
27/05:00am 26.7 N 24 31 999.7 - - - - - - - - -
27/04:30am 26.4 N 21 28 1000.4 - - - - - - - - -
27/04:00am 25.7 N 20 26 1000.8 - - - - - - - - -
27/03:30am 25.0 N 19 24 1001.7 - - - - - - - - -
27/03:00am 25.4 N 18 26 1002.0 - - - - - - - - -
27/02:30am 24.9 N 18 24 1002.9 - - - - - - - - -
27/02:00am 24.9 N 17 21 1003.5 - - - - - - - - -
27/01:30am 24.8 N 14 18 1004.3 - - - - - - - - -
27/01:00am 24.2 N 13 18 1004.9 - - - - - - - - -
27/12:30am 24.7 N 11 15 1005.4 - - - - - - - - -
27/12:00am 23.5 NNE 9 11 1005.6 - - - - - - - - -
 
Date/Time
EDT
Temp
°C
Wind Pressure Rain since
9am
mm
Weather Cloud Vis
km
Sea
Height
m
Swell
Dir  Spd
kts
Gust
kts
hPa Trend Height
m
Period
s
Dir
26/11:30pm 22.1 NNE 6 9 1006.2 - - - - - - - - -
26/11:00pm 20.0 ENE 3 3 1007.2 - - - - - - - - -
26/10:30pm 19.8 CALM 0 1 1007.9 - - - - - - - - -
26/10:00pm 19.6 ENE 1 2 1008.2 - - - - - - - - -
26/09:30pm 19.4 NNE 3 3 1008.5 - - - - - - - - -
26/09:00pm 19.2 NE 3 5 1008.4 - - - - - - - - -
26/08:30pm 18.8 ENE 4 7 1008.4 - - - - - - - - -
26/08:00pm 18.6 ENE 5 7 1008.6 - - - - - - - - -
26/07:30pm 18.8 ENE 5 7 1008.9 - - - - - - - - -
26/07:00pm 18.8 E 4 6 1009.1 - - - - - - - - -
26/06:30pm 19.0 E 6 9 1009.3 - - - - - - - - -
26/06:00pm 19.0 E 8 10 1009.4 - - - - - - - - -
26/05:30pm 18.8 E 7 10 1009.6 - - - - - - - - -
26/05:00pm 19.4 E 8 11 1009.9 - - - - - - - - -
26/04:30pm 19.3 E 7 11 1010.3 - - - - - - - - -
26/04:00pm 19.8 ESE 5 8 1010.9 - - - - - - - - -
26/03:30pm 19.5 ESE 3 6 1011.5 - - - - - - - - -
26/03:00pm 19.2 ESE 3 6 1011.9 - - - - - - - - -
26/02:30pm 18.9 E 6 9 1012.1 - - - - - - - - -
26/02:00pm 19.2 ESE 4 8 1012.6 - - - - - - - - -
26/01:30pm 19.1 ESE 4 8 1013.2 - - - - - - - - -
26/01:00pm 18.9 E 6 10 1013.7 - - - - - - - - -
26/12:30pm 18.7 E 7 11 1013.8 - - - - - - - - -
26/12:00pm 18.6 E 6 9 1014.1 - - - - - - - - -
26/11:30am 18.1 E 8 9 1014.6 - - - - - - - - -
26/11:00am 17.9 ENE 9 11 1014.5 - - - - - - - - -
26/10:30am 18.0 ENE 7 8 1014.8 - - - - - - - - -
26/10:00am 18.4 E 3 6 1015.0 - - - - - - - - -
26/09:30am 18.1 ENE 5 7 1015.2 - - - - - - - - -
26/09:00am 18.4 ESE 3 6 1015.1 - - - - - - - - -
26/08:30am 18.5 ESE 2 5 1014.7 - - - - - - - - -
26/08:00am 18.3 ESE 3 6 1014.5 - - - - - - - - -
26/07:30am 18.3 ESE 2 4 1014.1 - - - - - - - - -
26/07:00am 18.2 SE 2 3 1013.7 - - - - - - - - -
26/06:30am 17.8 S 3 4 1013.8 - - - - - - - - -
26/06:00am 17.9 SSW 3 5 1013.7 - - - - - - - - -
26/05:30am 17.8 SW 2 3 1013.5 - - - - - - - - -
26/05:00am 18.2 CALM 0 1 1013.5 - - - - - - - - -
26/04:30am 18.2 SSE 2 5 1013.6 - - - - - - - - -
26/04:00am 18.0 SW 1 2 1013.7 - - - - - - - - -
26/03:30am 17.9 SW 2 3 1014.0 - - - - - - - - -
26/03:00am 18.2 S 5 5 1013.9 - - - - - - - - -
26/02:30am 18.0 S 4 5 1014.3 - - - - - - - - -
26/02:00am 18.1 SSW 5 6 1014.4 - - - - - - - - -
26/01:30am 18.2 SSW 5 7 1014.4 - - - - - - - - -
26/01:00am 18.3 SW 3 5 1014.6 - - - - - - - - -
26/12:30am 18.3 SSW 3 5 1014.5 - - - - - - - - -
26/12:00am 18.3 SSW 4 6 1015.0 - - - - - - - - -
 
Date/Time
EDT
Temp
°C
Wind Pressure Rain since
9am
mm
Weather Cloud Vis
km
Sea
Height
m
Swell
Dir  Spd
kts
Gust
kts
hPa Trend Height
m
Period
s
Dir
25/11:30pm 18.0 SSW 5 7 1014.9 - - - - - - - - -
25/11:00pm 18.2 SSW 6 8 1014.9 - - - - - - - - -

Other Formats:

Comma delimited format used in spreadsheet applications
http://www.bom.gov.au/fwo/IDV60701/IDV60701.95826.axf

JavaScript Object Notation format (JSON) in row-major order
http://www.bom.gov.au/fwo/IDV60701/IDV60701.95826.json